createdAt,value
2018-09-04T00:00:37.208Z,22.88
2018-09-04T00:03:06.362Z,22.79
2018-09-04T00:05:35.518Z,22.73
2018-09-04T00:08:04.641Z,22.67
2018-09-04T00:10:33.623Z,22.59
2018-09-04T00:13:02.702Z,22.56
2018-09-04T00:15:31.743Z,22.50
2018-09-04T00:18:00.765Z,22.42
2018-09-04T00:20:29.732Z,22.38
2018-09-04T00:22:58.741Z,22.37
2018-09-04T00:25:27.732Z,22.41
2018-09-04T00:27:56.681Z,22.47
2018-09-04T00:30:25.753Z,22.43
2018-09-04T00:32:54.723Z,22.43
2018-09-04T00:35:23.731Z,22.41
2018-09-04T00:37:52.771Z,22.40
2018-09-04T00:40:21.820Z,22.34
2018-09-04T00:42:50.908Z,22.29
2018-09-04T00:45:20.029Z,22.11
2018-09-04T00:47:49.057Z,22.03
2018-09-04T00:50:18.065Z,21.88
2018-09-04T00:52:47.236Z,21.71
2018-09-04T00:55:16.288Z,21.54
2018-09-04T00:57:45.297Z,21.45
2018-09-04T01:00:14.268Z,21.42
2018-09-04T01:02:43.301Z,21.33
2018-09-04T01:05:12.393Z,21.22
2018-09-04T01:07:41.443Z,21.13
2018-09-04T01:10:10.529Z,21.05
2018-09-04T01:12:39.549Z,20.97
2018-09-04T01:15:08.600Z,20.96
2018-09-04T01:17:37.622Z,20.93
2018-09-04T01:20:06.823Z,20.84
2018-09-04T01:22:35.792Z,20.77
2018-09-04T01:25:04.837Z,20.73
2018-09-04T01:27:33.878Z,20.73
2018-09-04T01:30:02.842Z,20.68
2018-09-04T01:32:31.970Z,20.70
2018-09-04T01:35:00.997Z,20.67
2018-09-04T01:37:30.057Z,20.62
2018-09-04T01:39:59.083Z,20.58
2018-09-04T01:42:28.170Z,20.52
2018-09-04T01:44:57.326Z,20.50
2018-09-04T01:47:26.333Z,20.44
2018-09-04T01:49:55.296Z,20.42
2018-09-04T01:52:24.331Z,20.46
2018-09-04T01:54:53.378Z,20.44
2018-09-04T01:57:22.519Z,20.42
2018-09-04T01:59:51.488Z,20.39
2018-09-04T02:02:20.505Z,20.39
2018-09-04T02:04:49.532Z,20.38
2018-09-04T02:07:18.537Z,20.39
2018-09-04T02:09:47.641Z,20.43
2018-09-04T02:12:16.612Z,20.46
2018-09-04T02:14:45.640Z,20.45
2018-09-04T02:17:14.696Z,20.44
2018-09-04T02:19:43.776Z,20.42
2018-09-04T02:22:12.845Z,20.40
2018-09-04T02:24:41.920Z,20.36
2018-09-04T02:27:10.892Z,20.34
2018-09-04T02:29:39.860Z,20.36
2018-09-04T02:32:08.817Z,20.30
2018-09-04T02:34:37.889Z,20.30
2018-09-04T02:37:06.998Z,20.30
2018-09-04T02:39:36.005Z,20.28
2018-09-04T02:42:04.988Z,20.30
2018-09-04T02:44:34.060Z,20.26
2018-09-04T02:47:03.160Z,20.21
2018-09-04T02:49:32.115Z,20.20
2018-09-04T02:52:01.156Z,20.20
2018-09-04T02:54:30.136Z,20.20
2018-09-04T02:56:59.089Z,20.21
2018-09-04T02:59:28.175Z,20.18
2018-09-04T03:01:57.216Z,20.20
2018-09-04T03:04:26.226Z,20.21
2018-09-04T03:06:55.285Z,20.17
2018-09-04T03:09:24.239Z,20.19
2018-09-04T03:11:53.274Z,20.19
2018-09-04T03:14:22.275Z,20.14
2018-09-04T03:16:51.271Z,20.12
2018-09-04T03:19:20.253Z,20.08
2018-09-04T03:21:49.267Z,20.01
2018-09-04T03:24:18.345Z,19.94
2018-09-04T03:26:47.517Z,19.87
2018-09-04T03:29:16.525Z,19.81
2018-09-04T03:31:45.496Z,19.81
2018-09-04T03:34:14.504Z,19.79
2018-09-04T03:36:43.728Z,19.77
2018-09-04T03:39:12.845Z,19.79
2018-09-04T03:41:41.873Z,19.79
2018-09-04T03:44:10.950Z,19.83
2018-09-04T03:46:39.963Z,19.86
2018-09-04T03:49:08.983Z,19.88
2018-09-04T03:51:37.920Z,19.89
2018-09-04T03:54:07.004Z,19.91
2018-09-04T03:56:35.979Z,19.93
2018-09-04T03:59:04.919Z,19.95
2018-09-04T04:01:34.165Z,19.96
2018-09-04T04:04:03.004Z,19.96
2018-09-04T04:06:31.964Z,19.97
2018-09-04T04:09:01.056Z,19.99
2018-09-04T04:11:30.091Z,20.02
2018-09-04T04:13:59.125Z,20.07
2018-09-04T04:16:28.189Z,19.97
2018-09-04T04:18:57.236Z,19.97
2018-09-04T04:21:26.320Z,19.96
2018-09-04T04:23:55.304Z,20.00
2018-09-04T04:26:24.253Z,20.06
2018-09-04T04:28:53.381Z,20.09
2018-09-04T04:31:22.441Z,20.14
2018-09-04T04:33:51.648Z,20.19
2018-09-04T04:36:20.650Z,20.27
2018-09-04T04:38:49.612Z,20.30
2018-09-04T04:41:18.581Z,20.38
2018-09-04T04:43:47.646Z,20.48
2018-09-04T04:46:16.809Z,20.50
2018-09-04T04:48:45.889Z,20.53
2018-09-04T04:51:14.841Z,20.62
2018-09-04T04:53:43.808Z,20.71
2018-09-04T04:56:12.813Z,20.76
2018-09-04T04:58:41.872Z,20.87
2018-09-04T05:01:10.984Z,20.93
2018-09-04T05:03:39.946Z,21.20
2018-09-04T05:06:08.982Z,21.90
2018-09-04T05:08:37.988Z,22.68
2018-09-04T05:11:07.155Z,23.78
2018-09-04T05:13:36.172Z,24.57
2018-09-04T05:16:05.358Z,25.45
2018-09-04T05:18:34.385Z,25.75
2018-09-04T05:21:03.465Z,25.12
2018-09-04T05:23:32.515Z,24.37
2018-09-04T05:26:01.526Z,23.71
2018-09-04T05:28:30.574Z,23.29
2018-09-04T05:30:59.704Z,23.12
2018-09-04T05:33:38.900Z,22.90
2018-09-04T05:36:08.035Z,22.90
2018-09-04T05:38:37.430Z,22.75
2018-09-04T05:41:06.518Z,22.98
2018-09-04T05:43:43.732Z,23.11
2018-09-04T05:46:16.593Z,23.11
2018-09-04T05:48:45.918Z,23.43
2018-09-04T05:51:15.275Z,24.01
2018-09-04T05:53:44.441Z,24.32
2018-09-04T05:56:13.560Z,24.36
2018-09-04T05:58:42.618Z,24.59
2018-09-04T06:01:11.752Z,24.58
2018-09-04T06:03:40.929Z,24.39
2018-09-04T06:06:09.963Z,24.88
2018-09-04T06:08:39.121Z,25.23
2018-09-04T06:11:08.156Z,25.39
2018-09-04T06:13:37.159Z,25.33
2018-09-04T06:16:06.154Z,25.40
2018-09-04T06:18:35.193Z,25.64
2018-09-04T06:21:04.313Z,25.77
2018-09-04T06:23:33.361Z,26.03
2018-09-04T06:26:02.333Z,25.92
2018-09-04T06:28:31.436Z,26.22
2018-09-04T06:31:00.400Z,26.56
2018-09-04T06:33:29.506Z,26.58
2018-09-04T06:35:58.482Z,26.82
2018-09-04T06:38:27.544Z,26.86
2018-09-04T06:40:56.589Z,26.74
2018-09-04T06:43:25.631Z,26.62
2018-09-04T06:45:54.770Z,26.82
2018-09-04T06:48:23.750Z,27.04
2018-09-04T06:50:52.755Z,27.28
2018-09-04T06:53:21.850Z,27.27
2018-09-04T06:55:50.844Z,27.10
2018-09-04T06:58:19.895Z,26.80
2018-09-04T07:00:49.053Z,26.74
2018-09-04T07:03:18.050Z,26.75
2018-09-04T07:05:47.033Z,26.82
2018-09-04T07:08:16.374Z,26.92
2018-09-04T07:10:45.497Z,27.10
2018-09-04T07:13:14.568Z,26.94
2018-09-04T07:15:43.626Z,27.21
2018-09-04T07:18:12.669Z,27.47
2018-09-04T07:20:41.790Z,27.47
2018-09-04T07:23:10.996Z,27.46
2018-09-04T07:25:39.965Z,27.47
2018-09-04T07:28:08.988Z,27.27
2018-09-04T07:30:38.183Z,27.55
2018-09-04T07:33:08.968Z,27.89
2018-09-04T07:35:37.998Z,28.15
2018-09-04T07:38:09.629Z,27.89
2018-09-04T07:40:38.602Z,27.46
2018-09-04T07:43:07.601Z,27.14
2018-09-04T07:45:36.787Z,27.10
2018-09-04T07:48:06.265Z,27.20
2018-09-04T07:50:35.269Z,27.32
2018-09-04T07:53:04.277Z,27.49
2018-09-04T07:55:33.329Z,27.70
2018-09-04T07:58:02.386Z,27.85
2018-09-04T08:00:31.474Z,27.60
2018-09-04T08:03:00.447Z,27.66
2018-09-04T08:05:29.502Z,27.68
2018-09-04T08:07:58.694Z,27.72
2018-09-04T08:10:27.796Z,27.65
2018-09-04T08:12:56.902Z,27.83
2018-09-04T08:15:26.085Z,27.92
2018-09-04T08:17:55.142Z,27.98
2018-09-04T08:20:25.430Z,28.15
2018-09-04T08:22:55.580Z,28.20
2018-09-04T08:25:25.662Z,28.34
2018-09-04T08:27:54.705Z,28.56
2018-09-04T08:30:24.124Z,28.55
2018-09-04T08:32:53.223Z,28.73
2018-09-04T08:35:22.284Z,28.86
2018-09-04T08:37:55.361Z,28.80
2018-09-04T08:40:26.188Z,28.68
2018-09-04T08:42:55.268Z,28.93
2018-09-04T08:45:24.247Z,29.03
2018-09-04T08:47:53.298Z,29.02
2018-09-04T08:50:22.339Z,29.06
2018-09-04T08:52:51.273Z,28.87
2018-09-04T08:55:20.328Z,28.83
2018-09-04T08:57:49.485Z,28.92
2018-09-04T09:00:18.617Z,29.13
2018-09-04T09:02:47.648Z,29.21
2018-09-04T09:05:16.811Z,29.10
2018-09-04T09:07:45.785Z,29.18
2018-09-04T09:10:14.764Z,29.21
2018-09-04T09:12:43.778Z,29.07
2018-09-04T09:15:12.801Z,29.13
2018-09-04T09:17:41.796Z,29.31
2018-09-04T09:20:10.769Z,29.24
2018-09-04T09:22:39.854Z,29.28
2018-09-04T09:25:08.840Z,29.40
2018-09-04T09:27:38.032Z,29.71
2018-09-04T09:30:07.032Z,29.42
2018-09-04T09:32:35.996Z,29.09
2018-09-04T09:35:05.120Z,29.29
2018-09-04T09:37:34.145Z,29.64
2018-09-04T09:40:03.248Z,29.90
2018-09-04T09:42:32.457Z,29.78
2018-09-04T09:45:08.236Z,29.75
2018-09-04T09:47:41.255Z,30.24
2018-09-04T09:50:10.350Z,30.31
2018-09-04T09:52:39.429Z,30.16
2018-09-04T09:55:09.638Z,29.68
2018-09-04T09:57:38.646Z,29.83
2018-09-04T10:00:09.092Z,30.08
2018-09-04T10:02:43.182Z,30.13
2018-09-04T10:05:12.219Z,30.21
2018-09-04T10:07:41.235Z,30.67
2018-09-04T10:10:10.229Z,31.06
2018-09-04T10:12:39.281Z,31.02
2018-09-04T10:15:08.298Z,30.62
2018-09-04T10:17:37.352Z,30.29
2018-09-04T10:20:06.548Z,30.02
2018-09-04T10:22:35.565Z,29.61
2018-09-04T10:25:04.628Z,29.41
2018-09-04T10:27:33.658Z,29.24
2018-09-04T10:30:02.746Z,29.39
2018-09-04T10:32:31.777Z,29.99
2018-09-04T10:35:00.753Z,30.40
2018-09-04T10:37:29.816Z,30.79
2018-09-04T10:40:03.954Z,31.12
2018-09-04T10:42:33.597Z,31.33
2018-09-04T10:45:02.581Z,31.55
2018-09-04T10:47:31.589Z,31.38
2018-09-04T10:50:00.568Z,31.63
2018-09-04T10:52:29.525Z,31.76
2018-09-04T10:54:58.706Z,32.12
2018-09-04T10:57:27.751Z,33.15
2018-09-04T10:59:56.978Z,34.05
2018-09-04T11:02:26.257Z,34.38
2018-09-04T11:04:55.325Z,34.55
2018-09-04T11:07:24.405Z,35.35
2018-09-04T11:09:53.558Z,36.13
2018-09-04T11:12:22.459Z,37.08
2018-09-04T11:14:51.433Z,37.70
2018-09-04T11:17:20.407Z,38.55
2018-09-04T11:19:49.484Z,38.30
2018-09-04T11:22:18.465Z,38.13
2018-09-04T11:24:47.480Z,37.78
2018-09-04T11:27:16.485Z,37.09
2018-09-04T11:29:45.484Z,37.95
2018-09-04T11:32:14.592Z,38.61
2018-09-04T11:34:43.598Z,38.70
2018-09-04T11:37:12.665Z,38.78
2018-09-04T11:39:41.642Z,38.67
2018-09-04T11:42:12.441Z,38.60
2018-09-04T11:44:42.259Z,38.71
2018-09-04T11:47:12.073Z,38.26
2018-09-04T11:49:41.896Z,37.86
2018-09-04T11:52:11.104Z,38.56
2018-09-04T11:54:40.130Z,39.01
2018-09-04T11:57:09.187Z,38.34
2018-09-04T11:59:38.314Z,38.88
2018-09-04T12:02:11.950Z,39.05
2018-09-04T12:04:41.066Z,39.69
2018-09-04T12:07:10.025Z,40.72
2018-09-04T12:09:39.008Z,40.70
2018-09-04T12:12:08.122Z,40.31
2018-09-04T12:14:37.231Z,39.97
2018-09-04T12:17:08.947Z,39.63
2018-09-04T12:20:55.608Z,40.09
2018-09-04T12:23:24.565Z,40.11
2018-09-04T12:25:54.825Z,39.88
2018-09-04T12:28:24.035Z,40.48
2018-09-04T12:30:53.038Z,40.78
2018-09-04T12:33:22.128Z,40.03
2018-09-04T12:35:51.084Z,39.99
2018-09-04T12:38:21.481Z,40.19
2018-09-04T12:40:50.594Z,39.70
2018-09-04T12:43:19.691Z,39.50
2018-09-04T12:45:52.988Z,39.58
2018-09-04T12:48:23.931Z,40.04
2018-09-04T12:50:54.061Z,39.05
2018-09-04T12:53:23.670Z,37.80
2018-09-04T12:55:52.629Z,36.24
2018-09-04T12:58:21.595Z,34.97
2018-09-04T13:00:52.765Z,34.42
2018-09-04T13:03:24.111Z,33.83
2018-09-04T13:05:53.173Z,32.96
2018-09-04T13:08:23.591Z,32.73
2018-09-04T13:10:52.629Z,32.40
2018-09-04T13:13:21.616Z,32.15
2018-09-04T13:15:52.768Z,31.85
2018-09-04T13:18:21.902Z,31.54
2018-09-04T13:20:50.845Z,31.22
2018-09-04T13:23:20.019Z,31.05
2018-09-04T13:25:49.057Z,30.88
2018-09-04T13:28:18.228Z,30.65
2018-09-04T13:30:47.283Z,30.56
2018-09-04T13:33:16.289Z,30.54
2018-09-04T13:35:45.260Z,30.47
2018-09-04T13:38:14.213Z,30.47
2018-09-04T13:40:43.233Z,30.33
2018-09-04T13:43:12.180Z,30.30
2018-09-04T13:45:41.141Z,30.24
2018-09-04T13:48:10.156Z,30.23
2018-09-04T13:50:39.296Z,30.17
2018-09-04T13:53:08.337Z,30.18
2018-09-04T13:55:37.289Z,30.12
2018-09-04T13:58:06.261Z,30.15
2018-09-04T14:00:35.317Z,30.21
2018-09-04T14:03:04.323Z,30.19
2018-09-04T14:05:33.357Z,30.13
2018-09-04T14:08:02.309Z,30.28
2018-09-04T14:10:31.321Z,30.46
2018-09-04T14:13:00.352Z,30.66
2018-09-04T14:15:29.396Z,30.65
2018-09-04T14:17:58.457Z,30.58
2018-09-04T14:20:27.485Z,30.61
2018-09-04T14:23:26.584Z,30.63
2018-09-04T14:25:55.555Z,30.67
2018-09-04T14:28:40.973Z,30.76
2018-09-04T14:30:53.679Z,30.76
2018-09-04T14:33:22.669Z,30.79
2018-09-04T14:35:51.760Z,30.81
2018-09-04T14:38:20.778Z,30.81
2018-09-04T14:40:49.711Z,30.75
2018-09-04T14:43:18.735Z,30.66
2018-09-04T14:45:47.705Z,30.56
2018-09-04T14:48:16.828Z,30.45
2018-09-04T14:50:45.801Z,30.29
2018-09-04T14:53:14.829Z,30.05
2018-09-04T14:55:43.801Z,29.88
2018-09-04T14:58:12.800Z,29.74
2018-09-04T15:00:41.812Z,29.63
2018-09-04T15:03:10.775Z,29.52
2018-09-04T15:05:39.720Z,29.41
2018-09-04T15:08:08.772Z,29.32
2018-09-04T15:10:37.909Z,29.24
2018-09-04T15:13:07.071Z,29.21
2018-09-04T15:15:36.037Z,29.18
2018-09-04T15:18:05.009Z,29.14
2018-09-04T15:20:34.022Z,29.00
2018-09-04T15:23:03.249Z,28.88
2018-09-04T15:25:32.328Z,28.72
2018-09-04T15:28:01.330Z,28.56
2018-09-04T15:30:30.302Z,28.41
2018-09-04T15:32:59.332Z,28.26
2018-09-04T15:35:28.400Z,28.15
2018-09-04T15:37:57.520Z,28.09
2018-09-04T15:40:26.550Z,28.06
2018-09-04T15:42:55.663Z,27.99
2018-09-04T15:45:24.612Z,27.92
2018-09-04T15:47:53.560Z,27.88
2018-09-04T15:50:22.600Z,27.84
2018-09-04T15:52:51.561Z,27.75
2018-09-04T15:55:20.576Z,27.63
2018-09-04T15:57:49.553Z,27.49
2018-09-04T16:00:18.551Z,27.44
2018-09-04T16:02:47.638Z,27.38
2018-09-04T16:05:16.629Z,27.34
2018-09-04T16:07:45.634Z,27.29
2018-09-04T16:10:14.700Z,27.21
2018-09-04T16:12:43.653Z,27.14
2018-09-04T16:15:12.692Z,27.06
2018-09-04T16:17:41.676Z,26.96
2018-09-04T16:20:10.754Z,26.93
2018-09-04T16:22:39.966Z,26.89
2018-09-04T16:25:08.933Z,26.80
2018-09-04T16:27:38.045Z,26.76
2018-09-04T16:30:07.093Z,26.72
2018-09-04T16:32:36.122Z,26.67
2018-09-04T16:35:05.109Z,26.61
2018-09-04T16:37:34.186Z,26.56
2018-09-04T16:40:03.223Z,26.47
2018-09-04T16:42:32.172Z,26.38
2018-09-04T16:45:01.173Z,26.29
2018-09-04T16:47:30.684Z,26.20
2018-09-04T16:49:59.629Z,26.18
2018-09-04T16:52:28.752Z,26.14
2018-09-04T16:54:57.803Z,26.07
2018-09-04T16:57:26.903Z,26.01
2018-09-04T16:59:55.933Z,25.95
2018-09-04T17:02:25.060Z,25.88
2018-09-04T17:04:54.164Z,25.82
2018-09-04T17:07:23.084Z,25.77
2018-09-04T17:09:52.035Z,25.72
2018-09-04T17:12:21.133Z,25.68
2018-09-04T17:14:50.148Z,25.68
2018-09-04T17:17:19.205Z,25.68
2018-09-04T17:19:48.157Z,25.64
2018-09-04T17:22:17.118Z,25.62
2018-09-04T17:24:46.181Z,25.60
2018-09-04T17:27:15.177Z,25.60
2018-09-04T17:29:44.261Z,25.58
2018-09-04T17:32:13.308Z,25.59
2018-09-04T17:34:42.333Z,25.59
2018-09-04T17:37:11.477Z,25.58
2018-09-04T17:39:40.510Z,25.54
2018-09-04T17:42:09.452Z,25.50
2018-09-04T17:44:38.416Z,25.48
2018-09-04T17:47:07.368Z,25.46
2018-09-04T17:49:36.980Z,25.44
2018-09-04T17:52:06.261Z,25.47
2018-09-04T17:54:35.277Z,25.46
2018-09-04T17:57:04.272Z,25.48
2018-09-04T17:59:33.244Z,25.50
2018-09-04T18:02:02.358Z,25.49
2018-09-04T18:04:31.344Z,25.50
2018-09-04T18:07:00.353Z,25.56
2018-09-04T18:09:29.401Z,25.52
2018-09-04T18:11:58.375Z,25.47
2018-09-04T18:14:27.472Z,25.49
2018-09-04T18:16:56.471Z,25.43
2018-09-04T18:19:25.480Z,25.48
2018-09-04T18:21:54.505Z,25.47
2018-09-04T18:24:23.556Z,25.44
2018-09-04T18:26:52.712Z,25.39
2018-09-04T18:29:21.728Z,25.38
2018-09-04T18:31:50.756Z,25.33
2018-09-04T18:34:19.756Z,25.23
2018-09-04T18:36:48.769Z,25.19
2018-09-04T18:39:18.258Z,25.06
2018-09-04T18:41:47.220Z,25.00
2018-09-04T18:46:48.955Z,24.87
2018-09-04T18:49:17.947Z,24.81
2018-09-04T18:51:46.980Z,24.76
2018-09-04T18:54:15.936Z,24.74
2018-09-04T18:56:45.059Z,24.75
2018-09-04T18:59:14.114Z,24.76
2018-09-04T19:01:43.137Z,24.71
2018-09-04T19:04:12.290Z,24.53
2018-09-04T19:06:41.273Z,24.70
2018-09-04T19:09:10.265Z,24.68
2018-09-04T19:11:39.281Z,24.62
2018-09-04T19:14:08.333Z,24.56
2018-09-04T19:16:37.540Z,24.58
2018-09-04T19:19:06.570Z,24.56
2018-09-04T19:21:35.582Z,24.58
2018-09-04T19:24:04.630Z,24.60
2018-09-04T19:26:33.641Z,24.61
2018-09-04T19:29:03.329Z,24.64
2018-09-04T19:31:32.424Z,24.64
2018-09-04T19:34:01.517Z,24.60
2018-09-04T19:36:30.504Z,24.60
2018-09-04T19:38:59.490Z,24.59
2018-09-04T19:41:28.508Z,24.56
2018-09-04T19:43:57.485Z,24.55
2018-09-04T19:46:26.485Z,24.53
2018-09-04T19:48:55.569Z,24.53
2018-09-04T19:51:24.574Z,24.52
2018-09-04T19:53:53.677Z,24.47
2018-09-04T19:56:22.736Z,24.46
2018-09-04T19:58:51.804Z,24.41
2018-09-04T20:01:20.832Z,24.37
2018-09-04T20:03:49.898Z,24.36
2018-09-04T20:06:19.100Z,24.35
2018-09-04T20:08:48.048Z,24.38
2018-09-04T20:11:17.122Z,24.32
2018-09-04T20:13:46.118Z,24.31
2018-09-04T20:16:15.137Z,24.29
2018-09-04T20:18:44.168Z,24.26
2018-09-04T20:21:13.128Z,24.30
2018-09-04T20:23:42.158Z,24.30
2018-09-04T20:26:11.198Z,24.28
2018-09-04T20:28:40.274Z,24.26
2018-09-04T20:31:09.510Z,24.24
2018-09-04T20:33:38.480Z,24.15
2018-09-04T20:36:07.515Z,24.05
2018-09-04T20:38:36.485Z,24.05
2018-09-04T20:41:05.518Z,24.01
2018-09-04T20:43:34.739Z,24.07
2018-09-04T20:46:03.704Z,24.08
2018-09-04T20:48:32.713Z,24.08
2018-09-04T20:51:01.848Z,24.11
2018-09-04T20:53:30.895Z,24.10
2018-09-04T20:55:59.950Z,24.13
2018-09-04T20:58:39.934Z,24.13
2018-09-04T21:01:19.848Z,24.10
2018-09-04T21:03:59.920Z,24.11
2018-09-04T21:06:40.214Z,24.11
2018-09-04T21:09:26.349Z,23.99
2018-09-04T21:11:55.499Z,23.99
2018-09-04T21:14:24.929Z,24.02
2018-09-04T21:16:54.024Z,23.98
2018-09-04T21:19:23.023Z,23.94
2018-09-04T21:21:52.116Z,23.90
2018-09-04T21:24:21.222Z,23.88
2018-09-04T21:26:50.209Z,23.86
2018-09-04T21:29:19.169Z,23.85
2018-09-04T21:31:48.144Z,23.78
2018-09-04T21:34:17.255Z,23.62
2018-09-04T21:36:46.335Z,23.63
2018-09-04T21:39:15.292Z,23.65
2018-09-04T21:41:44.321Z,23.62
2018-09-04T21:44:13.402Z,23.58
2018-09-04T21:46:42.469Z,23.51
2018-09-04T21:49:11.440Z,23.45
2018-09-04T21:51:40.485Z,23.43
2018-09-04T21:54:09.520Z,23.34
2018-09-04T21:56:38.612Z,23.30
2018-09-04T21:59:07.635Z,23.28
2018-09-04T22:01:36.739Z,23.29
2018-09-04T22:04:06.530Z,23.27
2018-09-04T22:06:36.165Z,23.26
2018-09-04T22:09:07.277Z,23.30
2018-09-04T22:11:36.893Z,23.34
2018-09-04T22:14:06.583Z,23.35
2018-09-04T22:16:35.629Z,23.40
2018-09-04T22:19:04.672Z,23.35
2018-09-04T22:21:33.781Z,23.33
2018-09-04T22:24:02.792Z,23.31
2018-09-04T22:26:31.753Z,23.19
2018-09-04T22:29:00.743Z,23.18
2018-09-04T22:31:29.706Z,23.13
2018-09-04T22:33:58.756Z,23.12
2018-09-04T22:36:27.772Z,23.09
2018-09-04T22:38:56.724Z,23.05
2018-09-04T22:41:25.835Z,23.10
2018-09-04T22:43:54.811Z,23.12
2018-09-04T22:46:23.913Z,23.09
2018-09-04T22:48:52.876Z,23.08
2018-09-04T22:51:26.972Z,23.03
2018-09-04T22:53:55.937Z,22.89
2018-09-04T22:56:24.896Z,22.87
2018-09-04T22:58:53.860Z,22.90
2018-09-04T23:01:22.881Z,22.93
2018-09-04T23:03:52.224Z,22.93
2018-09-04T23:06:21.247Z,22.89
2018-09-04T23:08:50.208Z,22.88
2018-09-04T23:11:19.193Z,22.87
2018-09-04T23:13:48.165Z,22.81
2018-09-04T23:16:17.225Z,22.81
2018-09-04T23:18:46.241Z,22.78
2018-09-04T23:21:15.224Z,22.75
2018-09-04T23:23:44.195Z,22.69
2018-09-04T23:26:13.173Z,22.69
2018-09-04T23:28:42.316Z,22.65
2018-09-04T23:31:11.340Z,22.61
2018-09-04T23:33:40.337Z,22.56
2018-09-04T23:36:09.341Z,22.55
2018-09-04T23:38:38.372Z,22.56
2018-09-04T23:41:07.732Z,22.50
2018-09-04T23:43:36.751Z,22.50
2018-09-04T23:46:05.776Z,22.45
2018-09-04T23:48:34.756Z,22.48
2018-09-04T23:51:04.144Z,22.48
2018-09-04T23:53:33.297Z,22.46
2018-09-04T23:56:02.272Z,22.41
2018-09-04T23:58:31.224Z,22.41
